Time;durP1;ratioP1;P1;durP2;ratioP2;P2;SDS_P1;SDS_P2;PMS_P1;PMS_P2;Temp;Humidity;BMP_temperature;BMP_pressure;BME280_temperature;BME280_humidity;BME280_pressure;Samples;Min_cycle;Max_cycle;Signal;HPM_P1;HPM_P2
2022/09/13 00:00:52;;;;;;;5.87;5.30;;;20.00;99.90;;;;;;4998050;28;20974;-67
2022/09/13 00:03:19;;;;;;;6.40;4.80;;;19.90;99.90;;;;;;4998009;28;20421;-65
2022/09/13 00:05:45;;;;;;;6.83;5.20;;;20.00;99.90;;;;;;4996164;28;20881;-67
2022/09/13 00:08:12;;;;;;;9.77;5.10;;;19.90;99.90;;;;;;4995185;28;20420;-65
2022/09/13 00:10:39;;;;;;;5.83;5.23;;;19.90;99.90;;;;;;4998570;28;20481;-66
2022/09/13 00:13:07;;;;;;;6.00;5.40;;;19.90;99.90;;;;;;4996419;28;20440;-66
2022/09/13 00:15:33;;;;;;;6.00;5.03;;;19.90;99.90;;;;;;4999866;28;20444;-66
2022/09/13 00:17:58;;;;;;;6.23;5.00;;;19.90;99.90;;;;;;5001682;28;20468;-66
2022/09/13 00:20:24;;;;;;;5.43;4.93;;;19.90;99.90;;;;;;5000554;28;20940;-66
2022/09/13 00:22:50;;;;;;;6.27;4.70;;;19.80;99.90;;;;;;4997264;28;20215;-66
2022/09/13 00:25:16;;;;;;;5.67;5.17;;;19.80;99.90;;;;;;4999980;28;20205;-66
2022/09/13 00:27:43;;;;;;;5.77;5.27;;;19.90;99.90;;;;;;5000650;28;20204;-66
2022/09/13 00:30:10;;;;;;;5.73;5.23;;;19.80;99.90;;;;;;5000413;28;20428;-66
2022/09/13 00:32:35;;;;;;;5.80;5.20;;;19.80;99.90;;;;;;4997081;28;20424;-66
2022/09/13 00:35:02;;;;;;;7.43;5.30;;;19.80;99.90;;;;;;4999064;28;20692;-66
2022/09/13 00:37:28;;;;;;;7.20;4.90;;;19.70;99.90;;;;;;5001356;28;20264;-66
2022/09/13 00:39:54;;;;;;;7.80;5.37;;;19.70;99.90;;;;;;4999386;28;20542;-66
2022/09/13 00:42:24;;;;;;;6.40;5.80;;;19.70;99.90;;;;;;5002094;28;20189;-65
2022/09/13 00:45:01;;;;;;;5.87;5.27;;;19.60;99.90;;;;;;4996568;28;20213;-65
2022/09/13 00:47:34;;;;;;;7.27;5.77;;;19.60;99.90;;;;;;4999252;28;20424;-67
2022/09/13 00:50:16;;;;;;;5.80;5.20;;;19.60;99.90;;;;;;4983330;28;20435;-66
2022/09/13 00:52:45;;;;;;;7.20;5.70;;;19.60;99.90;;;;;;5001764;28;20420;-66
2022/09/13 00:55:23;;;;;;;7.83;5.00;;;19.60;99.90;;;;;;4999619;28;20793;-66
2022/09/13 00:57:49;;;;;;;5.47;4.90;;;19.60;99.90;;;;;;4999185;28;20988;-66
2022/09/13 01:00:17;;;;;;;5.40;4.90;;;19.60;99.90;;;;;;5000792;28;20808;-66
2022/09/13 01:02:51;;;;;;;6.83;5.50;;;19.60;99.90;;;;;;5002221;28;21296;-66
2022/09/13 01:05:21;;;;;;;5.77;5.20;;;19.50;99.90;;;;;;4999558;28;20768;-66
2022/09/13 01:07:47;;;;;;;5.70;5.20;;;19.50;99.90;;;;;;4996652;28;20441;-66
2022/09/13 01:10:13;;;;;;;5.23;4.73;;;19.50;99.90;;;;;;5001792;28;20486;-66
2022/09/13 01:12:53;;;;;;;7.10;4.87;;;19.50;99.90;;;;;;4996788;28;20268;-66
2022/09/13 01:15:19;;;;;;;5.57;4.93;;;19.40;99.90;;;;;;4998194;28;20458;-66
2022/09/13 01:17:45;;;;;;;5.50;5.00;;;19.40;99.90;;;;;;4999306;28;20478;-66
2022/09/13 01:20:13;;;;;;;5.70;5.10;;;19.40;99.90;;;;;;5001594;28;20272;-67
2022/09/13 01:22:50;;;;;;;5.60;5.10;;;19.40;99.90;;;;;;4997508;28;20432;-66
2022/09/13 01:25:31;;;;;;;4.97;4.57;;;19.40;99.90;;;;;;5000207;28;20460;-66
2022/09/13 01:28:11;;;;;;;8.23;5.20;;;19.40;99.90;;;;;;4999195;28;20451;-66
2022/09/13 01:30:50;;;;;;;7.10;5.67;;;19.40;99.90;;;;;;4995306;28;20440;-66
2022/09/13 01:33:40;;;;;;;5.30;4.80;;;19.40;99.90;;;;;;4998192;28;20827;-66
2022/09/13 01:36:32;;;;;;;6.10;5.50;;;19.30;99.90;;;;;;4999468;28;20435;-66
2022/09/13 01:39:06;;;;;;;7.47;4.90;;;19.30;99.90;;;;;;4999167;28;20765;-66
2022/09/13 01:42:02;;;;;;;6.10;5.50;;;19.30;99.90;;;;;;4999576;28;20530;-66
2022/09/13 01:44:51;;;;;;;7.00;5.60;;;19.30;99.90;;;;;;4999455;28;20432;-66
2022/09/13 01:47:26;;;;;;;6.33;5.30;;;19.30;99.90;;;;;;4995042;28;20413;-66
2022/09/13 01:50:06;;;;;;;7.13;6.00;;;19.20;99.90;;;;;;4998775;28;20960;-66
2022/09/13 01:52:54;;;;;;;8.60;5.30;;;19.20;99.90;;;;;;5001419;28;20559;-64
2022/09/13 01:56:02;;;;;;;5.90;5.03;;;19.20;99.90;;;;;;4998193;28;20932;-64
2022/09/13 01:58:40;;;;;;;5.23;4.60;;;19.20;99.90;;;;;;4995308;28;20530;-67
2022/09/13 02:01:17;;;;;;;6.10;5.50;;;19.10;99.90;;;;;;4996883;28;20420;-65
2022/09/13 02:03:51;;;;;;;7.93;4.97;;;19.10;99.90;;;;;;4999882;28;20432;-66
2022/09/13 02:06:21;;;;;;;12.93;5.70;;;19.00;99.90;;;;;;4999211;28;20476;-65
2022/09/13 02:08:52;;;;;;;7.33;5.50;;;19.00;99.90;;;;;;4996490;28;20916;-66
2022/09/13 02:11:21;;;;;;;6.17;5.27;;;19.00;99.90;;;;;;4997844;28;20431;-66
2022/09/13 02:13:59;;;;;;;6.07;4.60;;;18.90;99.90;;;;;;4998081;28;20523;-66
2022/09/13 02:16:32;;;;;;;8.03;4.57;;;18.90;99.90;;;;;;4978284;28;20451;-66
2022/09/13 02:19:05;;;;;;;6.23;5.33;;;18.90;99.90;;;;;;4992912;28;20476;-66
2022/09/13 02:21:38;;;;;;;5.60;5.10;;;18.90;99.90;;;;;;4997986;28;20969;-66
2022/09/13 02:24:09;;;;;;;4.97;4.47;;;18.90;99.90;;;;;;4997096;28;20460;-66
2022/09/13 02:26:39;;;;;;;5.70;4.57;;;18.90;99.90;;;;;;5000442;28;20449;-65
2022/09/13 02:29:11;;;;;;;5.33;4.83;;;18.90;99.90;;;;;;4998211;28;20848;-65
2022/09/13 02:31:46;;;;;;;6.63;5.63;;;18.80;99.90;;;;;;5000698;28;20443;-66
2022/09/13 02:34:19;;;;;;;7.57;5.03;;;18.80;99.90;;;;;;4996542;28;20450;-65
2022/09/13 02:36:47;;;;;;;5.70;5.20;;;18.80;99.90;;;;;;5000122;28;20515;-65
2022/09/13 02:39:15;;;;;;;6.40;5.43;;;18.80;99.90;;;;;;4995504;28;20464;-65
2022/09/13 02:42:05;;;;;;;5.77;5.27;;;18.70;99.90;;;;;;4994770;28;20437;-65
2022/09/13 02:44:39;;;;;;;7.10;5.07;;;18.70;99.90;;;;;;4996345;28;20472;-66
2022/09/13 02:47:15;;;;;;;7.60;5.10;;;18.70;99.90;;;;;;4998024;28;20464;-66
2022/09/13 02:50:12;;;;;;;7.20;4.87;;;18.60;99.90;;;;;;4999830;28;20794;-66
2022/09/13 02:52:40;;;;;;;7.97;5.27;;;18.50;99.90;;;;;;4997678;28;20507;-66
2022/09/13 02:55:06;;;;;;;4.87;4.40;;;18.40;99.90;;;;;;4995793;28;20450;-65
2022/09/13 02:57:39;;;;;;;8.73;5.30;;;18.40;99.90;;;;;;4997525;28;20416;-65
2022/09/13 03:00:05;;;;;;;5.70;5.10;;;18.40;99.90;;;;;;4980309;28;20988;-65
2022/09/13 03:02:33;;;;;;;7.83;5.10;;;18.30;99.90;;;;;;4993531;28;20594;-65
2022/09/13 03:05:02;;;;;;;5.43;4.47;;;18.20;99.90;;;;;;4996502;28;20482;-65
2022/09/13 03:07:28;;;;;;;4.93;4.43;;;18.20;99.90;;;;;;4997329;28;20831;-65
2022/09/13 03:09:57;;;;;;;5.23;4.73;;;18.30;99.90;;;;;;4994620;28;20435;-65
2022/09/13 03:13:00;;;;;;;5.50;5.00;;;18.30;99.90;;;;;;4996069;28;20222;-65
2022/09/13 03:16:04;;;;;;;7.30;4.63;;;18.30;99.90;;;;;;4998748;28;20447;-65
2022/09/13 03:19:08;;;;;;;5.23;4.23;;;18.30;99.90;;;;;;4994524;28;20554;-65
2022/09/13 03:21:59;;;;;;;4.73;4.20;;;18.30;99.90;;;;;;4964717;28;20437;-65
2022/09/13 03:24:34;;;;;;;5.60;5.03;;;18.30;99.90;;;;;;4996532;28;20541;-66
2022/09/13 03:27:00;;;;;;;5.93;4.43;;;18.30;99.90;;;;;;4999240;28;20423;-66
2022/09/13 03:29:39;;;;;;;5.40;4.57;;;18.30;99.90;;;;;;4995650;28;20443;-66
2022/09/13 03:32:15;;;;;;;6.40;5.27;;;18.30;99.90;;;;;;4996489;28;20212;-66
2022/09/13 03:35:07;;;;;;;5.33;4.83;;;18.30;99.90;;;;;;4994341;28;20874;-65
2022/09/13 03:37:52;;;;;;;5.30;4.80;;;18.30;99.90;;;;;;4973888;28;20962;-65
2022/09/13 03:40:29;;;;;;;11.10;4.87;;;18.20;99.90;;;;;;4999511;28;20520;-65
2022/09/13 03:43:05;;;;;;;6.70;4.77;;;18.30;99.90;;;;;;4995639;28;20421;-66
2022/09/13 03:45:36;;;;;;;4.30;3.87;;;18.30;99.90;;;;;;4997180;28;20539;-65
2022/09/13 03:48:03;;;;;;;5.20;4.70;;;18.30;99.90;;;;;;4995806;28;20436;-66
2022/09/13 03:50:30;;;;;;;6.47;4.77;;;18.30;99.90;;;;;;4998043;28;20466;-65
2022/09/13 03:53:02;;;;;;;5.33;4.83;;;18.30;99.90;;;;;;4997219;28;20456;-65
2022/09/13 03:55:30;;;;;;;5.67;5.17;;;18.30;99.90;;;;;;4994805;28;20451;-65
2022/09/13 03:57:55;;;;;;;5.50;5.00;;;18.30;99.90;;;;;;4977128;28;20472;-65
2022/09/13 04:00:21;;;;;;;5.37;4.87;;;18.30;99.90;;;;;;4995757;28;20805;-65
2022/09/13 04:02:47;;;;;;;6.43;5.73;;;18.40;99.90;;;;;;4996954;28;20192;-66
2022/09/13 04:05:13;;;;;;;5.63;5.13;;;18.30;99.90;;;;;;4996445;28;20428;-66
2022/09/13 04:07:38;;;;;;;7.50;5.13;;;18.40;99.90;;;;;;4995158;28;20527;-65
2022/09/13 04:10:04;;;;;;;6.43;4.50;;;18.40;99.90;;;;;;4998184;28;20189;-65
2022/09/13 04:12:30;;;;;;;6.03;4.90;;;18.40;99.90;;;;;;4999035;28;20863;-66
2022/09/13 04:14:56;;;;;;;6.80;4.87;;;18.40;99.90;;;;;;4997644;28;20480;-65
2022/09/13 04:17:22;;;;;;;6.50;4.90;;;18.40;99.90;;;;;;4994649;28;20228;-65
2022/09/13 04:19:48;;;;;;;5.00;4.50;;;18.30;99.90;;;;;;4990419;28;20575;-65
2022/09/13 04:22:14;;;;;;;4.80;4.40;;;18.40;99.90;;;;;;4996997;28;20185;-65
2022/09/13 04:24:39;;;;;;;5.20;4.40;;;18.40;99.90;;;;;;4994430;28;20284;-65
2022/09/13 04:27:05;;;;;;;7.53;5.20;;;18.40;99.90;;;;;;4995359;28;20511;-66
2022/09/13 04:29:32;;;;;;;7.60;5.13;;;18.40;99.90;;;;;;4997377;28;20193;-66
2022/09/13 04:31:58;;;;;;;9.73;5.20;;;18.40;99.90;;;;;;4978411;28;20455;-66
2022/09/13 04:34:24;;;;;;;5.30;4.73;;;18.40;99.90;;;;;;4995989;28;20460;-66
2022/09/13 04:36:51;;;;;;;7.70;5.50;;;18.30;99.90;;;;;;4997248;28;20424;-66
2022/09/13 04:39:17;;;;;;;4.97;4.50;;;18.30;99.90;;;;;;4992857;28;20694;-66
2022/09/13 04:41:46;;;;;;;4.90;4.50;;;18.40;99.90;;;;;;4998612;28;20422;-66
2022/09/13 04:44:12;;;;;;;7.70;5.20;;;18.40;99.90;;;;;;4992760;28;20540;-66
2022/09/13 04:46:37;;;;;;;5.00;4.60;;;18.30;99.90;;;;;;4997058;28;20416;-66
2022/09/13 04:49:03;;;;;;;5.13;4.63;;;18.30;99.90;;;;;;5000079;28;20489;-66
2022/09/13 04:51:28;;;;;;;7.27;5.17;;;18.20;99.90;;;;;;4997490;28;20200;-66
2022/09/13 04:53:55;;;;;;;6.30;4.67;;;18.20;99.90;;;;;;4997854;28;20189;-66
2022/09/13 04:56:22;;;;;;;5.27;4.77;;;18.30;99.90;;;;;;4998530;28;20199;-66
2022/09/13 04:58:50;;;;;;;5.30;4.80;;;18.30;99.90;;;;;;4997817;28;20525;-66
2022/09/13 05:01:16;;;;;;;12.07;5.07;;;18.30;99.90;;;;;;4997276;28;20420;-66
2022/09/13 05:03:41;;;;;;;7.00;4.70;;;18.20;99.90;;;;;;5002006;28;20420;-65
2022/09/13 05:06:09;;;;;;;6.00;5.40;;;18.10;99.90;;;;;;4999734;28;20502;-65
2022/09/13 05:08:35;;;;;;;5.97;4.80;;;18.10;99.90;;;;;;5000957;28;20428;-66
2022/09/13 05:11:01;;;;;;;8.80;5.40;;;18.10;99.90;;;;;;5001201;28;20944;-66
2022/09/13 05:13:28;;;;;;;6.00;5.40;;;18.10;99.90;;;;;;4996495;28;20916;-66
2022/09/13 05:15:58;;;;;;;5.17;4.67;;;18.00;99.90;;;;;;5001036;28;20458;-65
2022/09/13 05:18:28;;;;;;;7.50;5.00;;;18.00;99.90;;;;;;4999919;28;20554;-65
2022/09/13 05:20:55;;;;;;;4.93;4.10;;;18.00;99.90;;;;;;4999391;28;20416;-66
2022/09/13 05:23:21;;;;;;;5.20;4.20;;;18.00;99.90;;;;;;4997319;28;20803;-65
2022/09/13 05:25:54;;;;;;;5.33;4.57;;;18.00;99.90;;;;;;5001423;28;20445;-65
2022/09/13 05:28:21;;;;;;;7.30;4.60;;;18.00;99.90;;;;;;4996721;28;20451;-66
2022/09/13 05:30:56;;;;;;;6.20;4.50;;;17.90;99.90;;;;;;4999911;28;20455;-66
2022/09/13 05:33:23;;;;;;;6.07;3.70;;;18.00;99.90;;;;;;4998992;28;20464;-66
2022/09/13 05:35:49;;;;;;;5.17;4.30;;;18.00;99.90;;;;;;4997901;28;21006;-66
2022/09/13 05:38:15;;;;;;;4.77;4.27;;;18.10;99.90;;;;;;5001116;28;20509;-66
2022/09/13 05:40:40;;;;;;;5.17;4.67;;;18.10;99.90;;;;;;4999521;28;20444;-66
2022/09/13 05:43:06;;;;;;;5.37;4.87;;;18.10;99.90;;;;;;4995322;28;20645;-66
2022/09/13 05:45:31;;;;;;;5.17;4.00;;;18.10;99.90;;;;;;4999888;28;20204;-66
2022/09/13 05:47:57;;;;;;;8.23;4.43;;;18.20;99.90;;;;;;4997874;28;20219;-66
2022/09/13 05:50:22;;;;;;;4.60;4.20;;;18.20;99.90;;;;;;5001325;28;20234;-66
2022/09/13 05:52:52;;;;;;;5.03;4.53;;;18.10;99.90;;;;;;5001002;28;20288;-66
2022/09/13 05:55:18;;;;;;;4.30;3.90;;;18.10;99.90;;;;;;4995804;28;20430;-66
2022/09/13 05:57:43;;;;;;;5.40;4.60;;;18.10;99.90;;;;;;4997749;28;20436;-66
2022/09/13 06:00:10;;;;;;;5.60;4.40;;;18.10;99.90;;;;;;4998044;28;20177;-66
2022/09/13 06:02:35;;;;;;;6.70;4.10;;;18.20;99.90;;;;;;4995159;28;20181;-66
2022/09/13 06:05:01;;;;;;;5.40;4.10;;;18.10;99.90;;;;;;4999081;28;20453;-66
2022/09/13 06:07:27;;;;;;;4.73;4.17;;;18.20;99.90;;;;;;5000415;28;20560;-66
2022/09/13 06:09:53;;;;;;;5.83;4.63;;;18.20;99.90;;;;;;5000297;28;20181;-66
2022/09/13 06:12:18;;;;;;;8.10;5.10;;;18.10;99.90;;;;;;4982876;28;20436;-66
2022/09/13 06:14:44;;;;;;;6.47;4.30;;;18.20;99.90;;;;;;4997187;28;20485;-66
2022/09/13 06:17:10;;;;;;;5.93;4.13;;;18.20;99.90;;;;;;4996641;28;20399;-66
2022/09/13 06:19:35;;;;;;;7.53;4.50;;;18.20;99.90;;;;;;4999328;28;20217;-66
2022/09/13 06:22:01;;;;;;;7.30;4.67;;;18.30;99.90;;;;;;4985014;28;20178;-66
2022/09/13 06:24:26;;;;;;;13.10;9.00;;;18.30;99.90;;;;;;4980572;28;20670;-66
2022/09/13 06:26:52;;;;;;;9.83;5.10;;;18.40;99.90;;;;;;4999783;28;20188;-66
2022/09/13 06:29:18;;;;;;;5.47;4.67;;;18.50;99.90;;;;;;4999736;28;20580;-66
2022/09/13 06:31:44;;;;;;;4.90;4.27;;;18.50;99.90;;;;;;4995757;28;20478;-66
2022/09/13 06:34:15;;;;;;;6.50;4.70;;;18.60;99.90;;;;;;4997192;28;20232;-66
2022/09/13 06:36:40;;;;;;;5.40;4.00;;;18.60;99.90;;;;;;4997175;28;20193;-66
2022/09/13 06:39:06;;;;;;;7.13;4.20;;;18.70;99.90;;;;;;4996759;28;20674;-66
2022/09/13 06:41:32;;;;;;;10.83;5.00;;;18.80;99.90;;;;;;4994664;28;20802;-66
2022/09/13 06:44:00;;;;;;;5.03;4.50;;;18.80;99.90;;;;;;4997148;28;20617;-66
2022/09/13 06:46:31;;;;;;;5.57;4.83;;;18.90;99.90;;;;;;4997258;28;20451;-66
2022/09/13 06:49:02;;;;;;;5.70;4.00;;;18.80;99.90;;;;;;4997023;28;20420;-66
2022/09/13 06:51:29;;;;;;;6.77;4.50;;;18.80;99.90;;;;;;4994857;28;20486;-67
2022/09/13 06:53:55;;;;;;;5.63;4.40;;;19.00;99.90;;;;;;4998338;28;20412;-67
2022/09/13 06:56:25;;;;;;;5.90;4.90;;;19.10;99.90;;;;;;4997097;28;20437;-67
2022/09/13 06:58:55;;;;;;;5.43;4.80;;;19.20;99.90;;;;;;4997582;28;20460;-66
2022/09/13 07:01:27;;;;;;;6.10;4.40;;;19.40;99.90;;;;;;4996899;28;20432;-67
2022/09/13 07:03:58;;;;;;;6.30;4.50;;;19.50;99.90;;;;;;4997352;28;20405;-67
2022/09/13 07:06:27;;;;;;;4.80;4.40;;;19.70;99.90;;;;;;4978093;28;20859;-66
2022/09/13 07:08:53;;;;;;;7.47;4.47;;;19.70;99.90;;;;;;4999028;28;20419;-67
2022/09/13 07:11:21;;;;;;;5.57;4.20;;;19.70;99.90;;;;;;4998154;28;20984;-66
2022/09/13 07:13:51;;;;;;;4.93;4.10;;;19.80;99.90;;;;;;4997626;28;20478;-67
2022/09/13 07:16:18;;;;;;;5.03;4.17;;;20.00;99.90;;;;;;4994060;28;20452;-67
2022/09/13 07:18:49;;;;;;;5.43;4.90;;;19.90;99.90;;;;;;4978498;28;20460;-68
2022/09/13 07:21:16;;;;;;;9.17;7.10;;;20.10;99.90;;;;;;4998961;28;20419;-67
2022/09/13 07:23:42;;;;;;;5.73;4.70;;;20.20;99.90;;;;;;4997393;28;20972;-66
2022/09/13 07:26:09;;;;;;;6.00;4.27;;;20.40;99.90;;;;;;4996265;28;20431;-66
2022/09/13 07:28:39;;;;;;;6.10;4.03;;;20.30;99.90;;;;;;4995472;28;20189;-67
2022/09/13 07:31:09;;;;;;;5.83;5.17;;;20.40;99.90;;;;;;4999196;28;20462;-65
2022/09/13 07:33:36;;;;;;;7.00;4.43;;;20.40;99.90;;;;;;4980347;28;20953;-67
2022/09/13 07:36:05;;;;;;;9.47;4.70;;;20.50;99.90;;;;;;4996633;28;20439;-66
2022/09/13 07:38:39;;;;;;;5.23;4.17;;;20.60;99.90;;;;;;4992587;28;20514;-66
2022/09/13 07:41:07;;;;;;;6.83;5.27;;;20.70;99.90;;;;;;4994938;28;20438;-67
2022/09/13 07:43:34;;;;;;;5.70;4.70;;;20.80;99.90;;;;;;4977295;28;21376;-66
2022/09/13 07:46:12;;;;;;;11.20;4.93;;;20.80;99.90;;;;;;4994863;28;20451;-66
2022/09/13 07:48:40;;;;;;;9.83;4.80;;;20.80;99.90;;;;;;4999644;28;20429;-68
2022/09/13 07:51:10;;;;;;;7.73;5.30;;;20.80;99.90;;;;;;4978901;28;20432;-66
2022/09/13 07:53:37;;;;;;;7.90;4.50;;;20.80;99.90;;;;;;4980601;28;20961;-66
2022/09/13 07:56:05;;;;;;;6.70;4.60;;;21.00;99.90;;;;;;4993800;28;20839;-66
2022/09/13 07:58:34;;;;;;;8.60;4.37;;;21.10;99.90;;;;;;4998972;28;20896;-66
2022/09/13 08:01:03;;;;;;;5.53;4.30;;;21.10;99.90;;;;;;4998129;28;20899;-66
2022/09/13 08:03:29;;;;;;;6.03;4.03;;;21.20;99.90;;;;;;4995319;28;20526;-66
2022/09/13 08:05:54;;;;;;;7.83;4.60;;;21.30;99.90;;;;;;4997155;28;20524;-66
2022/09/13 08:08:20;;;;;;;7.03;4.40;;;21.40;99.90;;;;;;4996542;28;20185;-66
2022/09/13 08:10:46;;;;;;;6.87;5.07;;;21.40;99.90;;;;;;4996361;28;20189;-66
2022/09/13 08:13:11;;;;;;;7.27;5.30;;;21.50;99.90;;;;;;4998147;28;20181;-66
2022/09/13 08:15:37;;;;;;;5.80;4.30;;;21.50;99.90;;;;;;4994704;28;20209;-66
2022/09/13 08:18:04;;;;;;;5.83;4.33;;;21.60;99.90;;;;;;4993093;28;20221;-66
2022/09/13 08:20:30;;;;;;;5.83;4.70;;;21.60;99.90;;;;;;4998268;28;20185;-66
2022/09/13 08:22:55;;;;;;;5.30;4.33;;;21.70;99.90;;;;;;4995878;28;20441;-66
2022/09/13 08:25:21;;;;;;;5.07;4.57;;;21.80;99.90;;;;;;4992469;28;20312;-66
2022/09/13 08:27:47;;;;;;;6.67;4.40;;;21.90;99.90;;;;;;4998508;28;20264;-66
2022/09/13 08:30:12;;;;;;;5.50;4.50;;;21.90;99.90;;;;;;4996548;28;20190;-66
2022/09/13 08:32:38;;;;;;;6.13;4.07;;;21.90;99.90;;;;;;4993012;28;20178;-66
2022/09/13 08:35:04;;;;;;;5.90;3.87;;;21.90;99.90;;;;;;4996596;28;20324;-66
2022/09/13 08:37:33;;;;;;;4.13;3.73;;;22.00;99.90;;;;;;4994603;28;20177;-66
2022/09/13 08:39:58;;;;;;;5.60;3.77;;;21.90;99.90;;;;;;4999177;28;20205;-66
2022/09/13 08:42:47;;;;;;;4.67;3.83;;;22.00;99.90;;;;;;4997631;28;20796;-66
2022/09/13 08:45:12;;;;;;;4.07;3.60;;;22.10;99.90;;;;;;4998407;28;20189;-66
2022/09/13 08:47:47;;;;;;;4.30;3.43;;;22.10;99.90;;;;;;5000443;28;20829;-67
2022/09/13 08:50:18;;;;;;;3.67;3.37;;;22.20;99.90;;;;;;5001716;28;20244;-67
2022/09/13 08:53:02;;;;;;;4.40;3.63;;;22.20;99.90;;;;;;4999201;28;20419;-67
2022/09/13 08:55:48;;;;;;;4.37;3.33;;;22.20;99.90;;;;;;5000799;28;20542;-66
2022/09/13 08:58:35;;;;;;;4.70;4.17;;;22.30;99.90;;;;;;4996930;28;20526;-66
2022/09/13 09:01:28;;;;;;;6.97;3.80;;;22.30;99.90;;;;;;4998835;28;20408;-65
2022/09/13 09:04:26;;;;;;;5.77;3.40;;;22.40;99.90;;;;;;5001983;28;20454;-65
2022/09/13 09:07:15;;;;;;;3.97;3.60;;;22.50;99.90;;;;;;4958316;28;20447;-65
2022/09/13 09:09:58;;;;;;;4.40;4.00;;;22.60;99.90;;;;;;4999718;28;20412;-65
2022/09/13 09:12:48;;;;;;;8.00;3.37;;;22.70;99.90;;;;;;4998321;28;20936;-65
2022/09/13 09:15:23;;;;;;;4.10;3.70;;;22.80;99.90;;;;;;4999713;28;20444;-65
2022/09/13 09:18:01;;;;;;;3.97;3.57;;;22.90;99.90;;;;;;5000094;28;20916;-66
2022/09/13 09:20:36;;;;;;;5.80;3.10;;;22.90;99.90;;;;;;4997342;28;20447;-66
2022/09/13 09:23:11;;;;;;;3.70;3.40;;;23.00;99.90;;;;;;5000932;28;20464;-66
2022/09/13 09:25:37;;;;;;;4.00;3.63;;;23.10;99.90;;;;;;4996698;28;20539;-66
2022/09/13 09:28:13;;;;;;;6.63;3.47;;;23.20;99.90;;;;;;4995920;28;20946;-67
2022/09/13 09:30:48;;;;;;;3.83;3.53;;;23.30;99.90;;;;;;5000661;28;20181;-65
2022/09/13 09:33:48;;;;;;;7.20;3.50;;;23.30;99.90;;;;;;4996859;28;20435;-67
2022/09/13 09:36:39;;;;;;;3.53;3.17;;;23.40;99.90;;;;;;4969651;28;20673;-65
2022/09/13 09:39:07;;;;;;;4.00;3.40;;;23.40;99.90;;;;;;4996925;28;20911;-65
2022/09/13 09:41:34;;;;;;;6.13;3.23;;;23.40;99.90;;;;;;4997380;28;20504;-65
2022/09/13 09:44:24;;;;;;;4.00;3.60;;;23.50;99.90;;;;;;5002025;28;20416;-66
2022/09/13 09:46:56;;;;;;;3.70;3.40;;;23.50;99.90;;;;;;4999190;28;20439;-66
2022/09/13 09:52:27;;;;;;;6.20;3.80;;;23.80;99.90;;;;;;4997821;28;20444;-66
2022/09/13 09:54:58;;;;;;;4.70;3.50;;;24.00;99.90;;;;;;4999957;28;20444;-67
2022/09/13 09:57:57;;;;;;;6.97;3.87;;;24.20;99.90;;;;;;4995509;28;20432;-66
2022/09/13 10:00:28;;;;;;;3.67;3.37;;;24.30;99.90;;;;;;4997805;28;20479;-65
2022/09/13 10:02:58;;;;;;;5.70;3.20;;;24.50;99.90;;;;;;4996819;28;20497;-65
2022/09/13 10:05:26;;;;;;;3.90;3.60;;;24.40;99.90;;;;;;4997586;28;20440;-65
2022/09/13 10:08:06;;;;;;;3.83;3.53;;;24.50;99.90;;;;;;4999667;28;20509;-66
2022/09/13 10:10:41;;;;;;;14.27;4.00;;;24.60;99.90;;;;;;4998857;28;20728;-66
2022/09/13 10:13:13;;;;;;;4.37;3.33;;;24.70;99.90;;;;;;4996731;28;20436;-66
2022/09/13 10:16:00;;;;;;;6.57;3.40;;;24.70;99.90;;;;;;4997079;28;20785;-66
2022/09/13 10:18:28;;;;;;;3.40;3.10;;;24.70;99.90;;;;;;4998732;28;20495;-66
2022/09/13 10:21:18;;;;;;;4.90;4.10;;;24.90;99.90;;;;;;4994486;28;20435;-66
2022/09/13 10:23:49;;;;;;;6.53;3.77;;;25.00;99.90;;;;;;4995203;28;20556;-66
2022/09/13 10:26:23;;;;;;;3.83;3.50;;;25.10;99.90;;;;;;4996502;28;20441;-66
2022/09/13 10:29:01;;;;;;;3.87;3.47;;;25.20;99.90;;;;;;4997838;28;20409;-65
2022/09/13 10:31:30;;;;;;;3.60;3.30;;;25.30;99.90;;;;;;4995631;28;20808;-66
2022/09/13 10:34:02;;;;;;;5.67;3.47;;;25.40;99.90;;;;;;4998790;28;20817;-66
2022/09/13 10:36:33;;;;;;;4.50;3.47;;;25.50;99.90;;;;;;4993019;28;20436;-66
2022/09/13 10:39:05;;;;;;;4.50;3.77;;;25.60;99.90;;;;;;4998116;28;20456;-65
2022/09/13 10:41:34;;;;;;;4.03;3.63;;;25.80;99.90;;;;;;4998372;28;20405;-66
2022/09/13 10:44:02;;;;;;;3.87;3.57;;;25.90;99.90;;;;;;4994885;28;20428;-66
2022/09/13 10:46:30;;;;;;;5.23;3.73;;;26.00;99.90;;;;;;4995566;28;20438;-65
2022/09/13 10:48:56;;;;;;;3.70;3.40;;;26.10;99.90;;;;;;4998870;28;20435;-66
2022/09/13 10:51:37;;;;;;;10.00;3.20;;;26.10;99.90;;;;;;4996897;28;20440;-66
2022/09/13 10:54:18;;;;;;;6.60;3.57;;;26.20;99.90;;;;;;4998403;28;20185;-66
2022/09/13 10:56:45;;;;;;;4.67;4.20;;;26.20;99.90;;;;;;4998238;28;20825;-66
2022/09/13 10:59:21;;;;;;;5.90;3.80;;;26.30;99.90;;;;;;4994513;28;20482;-67
2022/09/13 11:02:25;;;;;;;5.70;3.97;;;26.30;99.90;;;;;;4996962;28;20424;-66
2022/09/13 11:05:05;;;;;;;7.00;3.70;;;26.40;99.90;;;;;;4994879;28;20831;-66
2022/09/13 11:07:46;;;;;;;4.73;3.80;;;26.50;99.90;;;;;;4998634;28;20826;-65
2022/09/13 11:10:23;;;;;;;4.17;3.67;;;26.60;99.90;;;;;;4980410;28;20467;-67
2022/09/13 11:13:06;;;;;;;6.53;4.20;;;26.70;99.90;;;;;;4977811;28;20844;-66
2022/09/13 11:15:54;;;;;;;4.20;3.80;;;26.80;99.90;;;;;;4994406;28;20437;-65
2022/09/13 11:18:50;;;;;;;7.33;3.97;;;26.80;99.90;;;;;;4993450;28;20491;-66
2022/09/13 11:21:41;;;;;;;4.93;4.00;;;26.80;99.90;;;;;;4995155;28;20432;-66
2022/09/13 11:24:51;;;;;;;3.83;3.50;;;26.90;99.90;;;;;;4995173;28;20949;-66
2022/09/13 11:27:49;;;;;;;3.70;3.40;;;27.00;99.90;;;;;;4998647;28;20420;-66
2022/09/13 11:30:17;;;;;;;3.77;3.47;;;27.10;99.90;;;;;;4996089;28;20947;-66
2022/09/13 11:33:02;;;;;;;4.27;3.87;;;27.30;99.90;;;;;;4998114;28;20436;-67
2022/09/13 11:35:52;;;;;;;4.63;3.50;;;27.30;99.90;;;;;;4997504;28;20459;-65
2022/09/13 11:38:35;;;;;;;7.30;3.20;;;27.40;99.90;;;;;;4996649;28;20979;-65
2022/09/13 11:41:10;;;;;;;3.97;3.67;;;27.30;99.90;;;;;;4994827;28;20540;-66
2022/09/13 11:44:13;;;;;;;6.63;3.40;;;27.40;99.90;;;;;;4998535;28;20420;-65
2022/09/13 11:47:13;;;;;;;3.97;3.57;;;27.50;99.90;;;;;;4993994;28;20424;-65
2022/09/13 11:50:16;;;;;;;5.00;3.70;;;27.60;99.90;;;;;;4976908;28;20987;-66
2022/09/13 11:52:53;;;;;;;5.30;3.60;;;27.60;99.90;;;;;;4963959;28;20442;-66
2022/09/13 11:55:30;;;;;;;7.87;3.90;;;27.70;99.90;;;;;;4997021;28;20462;-66
2022/09/13 11:58:00;;;;;;;5.83;4.23;;;27.80;99.90;;;;;;4996017;28;20456;-66
2022/09/13 12:00:39;;;;;;;7.60;3.70;;;27.90;99.90;;;;;;4994717;28;20957;-66
2022/09/13 12:03:26;;;;;;;5.40;3.50;;;28.00;99.90;;;;;;4994866;28;20454;-66
2022/09/13 12:06:12;;;;;;;3.90;3.60;;;28.20;99.90;;;;;;4982361;28;21047;-66
2022/09/13 12:08:50;;;;;;;3.47;3.17;;;28.40;99.60;;;;;;4980072;28;20417;-66
2022/09/13 12:11:21;;;;;;;4.20;3.33;;;28.70;98.60;;;;;;5001165;28;20450;-66
2022/09/13 12:13:51;;;;;;;3.43;3.03;;;29.00;98.30;;;;;;5000060;28;20968;-67
2022/09/13 12:16:23;;;;;;;4.53;3.30;;;29.10;97.10;;;;;;4999467;28;20440;-64
2022/09/13 12:18:53;;;;;;;4.87;3.37;;;29.40;96.80;;;;;;5001265;28;20525;-65
2022/09/13 12:21:30;;;;;;;4.30;3.60;;;29.60;96.00;;;;;;4998814;28;20479;-66
2022/09/13 12:23:59;;;;;;;5.80;3.50;;;29.90;96.20;;;;;;5000777;28;20436;-66
2022/09/13 12:26:46;;;;;;;4.40;3.33;;;30.10;96.00;;;;;;5003050;28;20796;-66
2022/09/13 12:29:18;;;;;;;3.83;3.40;;;30.40;95.60;;;;;;4997091;28;20455;-65
2022/09/13 12:31:43;;;;;;;6.00;3.73;;;30.80;95.10;;;;;;5001706;28;20504;-65
2022/09/13 12:34:23;;;;;;;5.97;3.57;;;31.10;94.40;;;;;;5000886;28;20420;-66
2022/09/13 12:37:18;;;;;;;5.53;3.50;;;31.20;93.50;;;;;;4978391;28;20680;-66
2022/09/13 12:40:02;;;;;;;4.10;3.70;;;31.30;92.70;;;;;;5000648;28;20471;-66
2022/09/13 12:42:53;;;;;;;3.40;3.10;;;31.60;92.80;;;;;;5000478;28;20420;-65
2022/09/13 12:45:44;;;;;;;4.20;3.80;;;31.90;91.40;;;;;;4998697;28;20467;-66
2022/09/13 12:48:28;;;;;;;4.33;3.93;;;32.10;90.10;;;;;;5000650;28;20747;-67
2022/09/13 12:51:06;;;;;;;3.10;2.70;;;32.10;87.70;;;;;;4997816;28;20420;-66
2022/09/13 12:54:04;;;;;;;5.40;4.97;;;32.30;85.50;;;;;;5000212;28;20773;-65
2022/09/13 12:56:43;;;;;;;3.67;3.33;;;32.30;82.60;;;;;;4999242;28;20507;-66
2022/09/13 12:59:34;;;;;;;5.40;4.90;;;32.40;81.60;;;;;;5000216;28;20506;-66
2022/09/13 13:02:02;;;;;;;3.80;3.50;;;32.60;81.90;;;;;;5000659;28;20448;-66
2022/09/13 13:04:33;;;;;;;4.07;3.20;;;32.70;80.00;;;;;;5001823;28;20443;-66
2022/09/13 13:07:05;;;;;;;3.70;3.40;;;32.80;76.50;;;;;;5000567;28;20438;-66
2022/09/13 13:09:47;;;;;;;8.73;3.97;;;33.10;76.00;;;;;;5002431;28;20420;-66
2022/09/13 13:12:37;;;;;;;3.37;3.07;;;33.40;76.30;;;;;;4997590;28;20445;-66
2022/09/13 13:15:11;;;;;;;4.40;3.53;;;34.00;74.40;;;;;;4998546;28;20419;-66
2022/09/13 13:17:42;;;;;;;4.10;3.80;;;34.70;71.50;;;;;;5000498;28;20405;-65
2022/09/13 13:20:40;;;;;;;3.40;3.07;;;35.10;69.40;;;;;;4997135;28;20451;-65